createdAt,value
2018-08-23T00:00:48.130Z,39.20
2018-08-23T00:01:48.125Z,40.30
2018-08-23T00:02:48.107Z,40.40
2018-08-23T00:03:48.089Z,40.10
2018-08-23T00:04:48.081Z,39.80
2018-08-23T00:05:48.068Z,39.00
2018-08-23T00:06:48.052Z,43.40
2018-08-23T00:07:48.062Z,47.80
2018-08-23T00:08:48.018Z,52.10
2018-08-23T00:09:48.017Z,56.70
2018-08-23T00:10:48.002Z,57.30
2018-08-23T00:11:47.977Z,58.90
2018-08-23T00:12:47.961Z,61.60
2018-08-23T00:13:48.098Z,58.80
2018-08-23T00:14:47.934Z,58.00
2018-08-23T00:15:47.918Z,61.50
2018-08-23T00:16:48.008Z,57.00
2018-08-23T00:17:47.894Z,57.30
2018-08-23T00:18:47.884Z,62.80
2018-08-23T00:19:47.868Z,63.90
2018-08-23T00:20:47.847Z,63.00
2018-08-23T00:21:47.836Z,64.40
2018-08-23T00:22:47.828Z,63.70
2018-08-23T00:23:47.808Z,63.90
2018-08-23T00:24:47.799Z,62.60
2018-08-23T00:25:47.777Z,62.60
2018-08-23T00:26:47.765Z,63.00
2018-08-23T00:27:47.748Z,60.20
2018-08-23T00:28:47.734Z,61.70
2018-08-23T00:29:47.721Z,62.40
2018-08-23T00:30:47.706Z,61.30
2018-08-23T00:31:47.692Z,62.70
2018-08-23T00:32:47.682Z,63.00
2018-08-23T00:33:47.665Z,61.90
2018-08-23T00:34:47.651Z,61.40
2018-08-23T00:35:47.644Z,61.90
2018-08-23T00:36:47.621Z,62.00
2018-08-23T00:37:47.607Z,57.70
2018-08-23T00:38:47.594Z,62.80
2018-08-23T00:39:47.578Z,61.80
2018-08-23T00:40:47.564Z,61.00
2018-08-23T00:41:47.549Z,60.20
2018-08-23T00:42:47.747Z,62.10
2018-08-23T00:43:47.535Z,61.50
2018-08-23T00:44:47.507Z,61.00
2018-08-23T00:45:47.493Z,62.90
2018-08-23T00:46:47.483Z,65.00
2018-08-23T00:47:47.465Z,62.40
2018-08-23T00:48:47.452Z,57.90
2018-08-23T00:49:47.436Z,60.30
2018-08-23T00:50:47.423Z,59.50
2018-08-23T00:51:47.408Z,63.40
2018-08-23T00:52:47.395Z,62.50
2018-08-23T00:53:47.378Z,60.50
2018-08-23T00:54:47.374Z,61.30
2018-08-23T00:55:47.353Z,65.80
2018-08-23T00:56:47.343Z,64.30
2018-08-23T00:57:47.326Z,65.40
2018-08-23T00:58:47.314Z,63.80
2018-08-23T00:59:47.301Z,61.90
2018-08-23T01:00:47.279Z,64.70
2018-08-23T01:01:47.269Z,65.20
2018-08-23T01:02:47.251Z,62.10
2018-08-23T01:03:47.240Z,61.10
2018-08-23T01:04:47.221Z,62.40
2018-08-23T01:05:47.208Z,66.10
2018-08-23T01:06:47.194Z,62.10
2018-08-23T01:07:47.178Z,63.00
2018-08-23T01:08:47.164Z,64.90
2018-08-23T01:09:47.150Z,63.80
2018-08-23T01:10:47.139Z,60.20
2018-08-23T01:11:47.124Z,62.90
2018-08-23T01:12:47.106Z,65.70
2018-08-23T01:13:47.092Z,63.30
2018-08-23T01:14:47.079Z,64.40
2018-08-23T01:15:47.072Z,64.50
2018-08-23T01:16:47.049Z,63.80
2018-08-23T01:17:47.034Z,65.70
2018-08-23T01:18:47.022Z,65.20
2018-08-23T01:19:47.004Z,61.40
2018-08-23T01:20:46.992Z,64.00
2018-08-23T01:21:46.976Z,66.80
2018-08-23T01:22:46.963Z,63.20
2018-08-23T01:23:46.949Z,65.60
2018-08-23T01:24:46.934Z,65.70
2018-08-23T01:25:46.919Z,65.50
2018-08-23T01:26:46.904Z,64.60
2018-08-23T01:27:46.895Z,64.80
2018-08-23T01:28:46.875Z,65.80
2018-08-23T01:29:46.864Z,64.40
2018-08-23T01:30:46.849Z,65.80
2018-08-23T01:31:46.831Z,64.40
2018-08-23T01:32:46.817Z,66.60
2018-08-23T01:33:46.802Z,65.40
2018-08-23T01:34:46.788Z,62.90
2018-08-23T01:35:46.775Z,64.90
2018-08-23T01:36:46.760Z,64.90
2018-08-23T01:37:46.751Z,60.90
2018-08-23T01:38:46.728Z,63.00
2018-08-23T01:39:46.714Z,62.70
2018-08-23T01:40:46.698Z,64.00
2018-08-23T01:41:46.685Z,60.60
2018-08-23T01:42:46.672Z,60.40
2018-08-23T01:43:46.655Z,61.10
2018-08-23T01:44:46.641Z,58.50
2018-08-23T01:45:46.629Z,60.30
2018-08-23T01:46:46.614Z,60.30
2018-08-23T01:47:46.604Z,60.90
2018-08-23T01:48:46.586Z,60.40
2018-08-23T01:49:46.569Z,60.70
2018-08-23T01:50:46.556Z,59.70
2018-08-23T01:51:46.540Z,61.40
2018-08-23T01:52:46.529Z,61.60
2018-08-23T01:53:46.511Z,60.60
2018-08-23T01:54:46.505Z,62.00
2018-08-23T01:55:46.484Z,62.40
2018-08-23T01:56:46.468Z,61.00
2018-08-23T01:57:46.453Z,60.00
2018-08-23T01:58:46.441Z,65.00
2018-08-23T01:59:46.425Z,60.90
2018-08-23T02:00:46.411Z,64.30
2018-08-23T02:01:46.396Z,66.00
2018-08-23T02:02:46.380Z,64.60
2018-08-23T02:03:46.367Z,64.40
2018-08-23T02:04:46.352Z,65.40
2018-08-23T02:05:46.337Z,67.10
2018-08-23T02:06:46.333Z,63.30
2018-08-23T02:07:46.308Z,65.70
2018-08-23T02:08:46.294Z,63.70
2018-08-23T02:09:46.279Z,63.30
2018-08-23T02:10:46.265Z,66.90
2018-08-23T02:11:46.248Z,65.70
2018-08-23T02:12:46.244Z,63.20
2018-08-23T02:13:46.221Z,65.70
2018-08-23T02:14:46.206Z,66.50
2018-08-23T02:15:46.200Z,63.30
2018-08-23T02:16:46.176Z,63.10
2018-08-23T02:17:46.166Z,66.40
2018-08-23T02:18:46.166Z,63.40
2018-08-23T02:19:46.134Z,67.10
2018-08-23T02:20:46.118Z,67.20
2018-08-23T02:21:46.106Z,66.40
2018-08-23T02:22:46.088Z,63.40
2018-08-23T02:23:46.073Z,62.70
2018-08-23T02:24:46.064Z,62.00
2018-08-23T02:25:46.047Z,63.30
2018-08-23T02:26:46.030Z,61.60
2018-08-23T02:27:46.014Z,61.40
2018-08-23T02:28:45.999Z,59.50
2018-08-23T02:29:45.985Z,58.90
2018-08-23T02:30:45.983Z,60.20
2018-08-23T02:31:45.959Z,57.20
2018-08-23T02:32:45.945Z,58.00
2018-08-23T02:33:45.928Z,58.80
2018-08-23T02:34:45.914Z,58.50
2018-08-23T02:35:45.899Z,61.60
2018-08-23T02:36:45.885Z,57.00
2018-08-23T02:37:45.869Z,61.50
2018-08-23T02:38:45.856Z,58.50
2018-08-23T02:39:45.841Z,58.60
2018-08-23T02:40:45.826Z,57.30
2018-08-23T02:41:45.821Z,57.50
2018-08-23T02:42:45.804Z,56.40
2018-08-23T02:43:45.782Z,56.70
2018-08-23T02:44:45.835Z,56.20
2018-08-23T02:45:45.754Z,57.30
2018-08-23T02:46:45.738Z,55.70
2018-08-23T02:47:45.723Z,55.90
2018-08-23T02:48:45.706Z,59.00
2018-08-23T02:49:45.696Z,57.50
2018-08-23T02:50:45.677Z,57.30
2018-08-23T02:51:45.674Z,56.60
2018-08-23T02:52:45.648Z,56.40
2018-08-23T02:53:45.636Z,55.70
2018-08-23T02:54:45.622Z,54.50
2018-08-23T02:55:45.603Z,56.60
2018-08-23T02:56:45.590Z,56.90
2018-08-23T02:57:45.579Z,56.10
2018-08-23T02:58:45.560Z,58.30
2018-08-23T02:59:45.553Z,60.70
2018-08-23T03:00:45.530Z,54.30
2018-08-23T03:01:45.514Z,51.70
2018-08-23T03:02:45.501Z,50.90
2018-08-23T03:03:45.486Z,54.90
2018-08-23T03:04:45.475Z,53.50
2018-08-23T03:05:45.456Z,57.30
2018-08-23T03:06:45.441Z,53.70
2018-08-23T03:07:45.431Z,57.80
2018-08-23T03:08:45.416Z,55.40
2018-08-23T03:09:45.400Z,57.70
2018-08-23T03:10:45.381Z,56.40
2018-08-23T03:11:45.367Z,53.70
2018-08-23T03:12:45.353Z,56.10
2018-08-23T03:13:45.338Z,55.30
2018-08-23T03:14:45.322Z,55.60
2018-08-23T03:15:45.307Z,55.60
2018-08-23T03:16:45.292Z,58.30
2018-08-23T03:17:45.278Z,56.50
2018-08-23T03:18:45.265Z,58.30
2018-08-23T03:19:45.247Z,54.40
2018-08-23T03:20:45.233Z,55.10
2018-08-23T03:21:45.216Z,53.00
2018-08-23T03:22:45.204Z,59.40
2018-08-23T03:23:45.192Z,72.30
2018-08-23T03:24:45.172Z,73.90
2018-08-23T03:25:45.161Z,70.60
2018-08-23T03:26:45.150Z,65.50
2018-08-23T03:27:45.126Z,52.70
2018-08-23T03:28:45.118Z,53.50
2018-08-23T03:29:45.101Z,55.00
2018-08-23T03:30:45.088Z,52.70
2018-08-23T03:31:45.068Z,57.50
2018-08-23T03:32:45.053Z,50.90
2018-08-23T03:33:45.040Z,55.40
2018-08-23T03:34:45.025Z,57.50
2018-08-23T03:35:45.013Z,55.40
2018-08-23T03:36:44.998Z,53.00
2018-08-23T03:37:44.977Z,55.50
2018-08-23T03:38:44.964Z,51.50
2018-08-23T03:39:44.952Z,43.30
2018-08-23T03:40:44.931Z,30.30
2018-08-23T03:41:44.918Z,33.20
2018-08-23T03:42:44.904Z,34.80
2018-08-23T03:43:44.888Z,40.60
2018-08-23T03:44:44.873Z,42.00
2018-08-23T03:45:44.858Z,49.00
2018-08-23T03:46:44.842Z,45.70
2018-08-23T03:47:44.830Z,44.80
2018-08-23T03:48:44.812Z,55.10
2018-08-23T03:49:44.796Z,52.60
2018-08-23T03:50:44.782Z,53.60
2018-08-23T03:51:44.767Z,57.20
2018-08-23T03:52:44.753Z,59.20
2018-08-23T03:53:44.740Z,58.70
2018-08-23T03:54:44.730Z,59.60
2018-08-23T03:55:44.708Z,56.40
2018-08-23T03:56:44.697Z,54.00
2018-08-23T03:57:44.684Z,53.10
2018-08-23T03:58:44.663Z,48.80
2018-08-23T03:59:44.649Z,56.90
2018-08-23T04:00:44.632Z,57.70
2018-08-23T04:01:44.629Z,52.90
2018-08-23T04:02:44.605Z,52.10
2018-08-23T04:03:44.584Z,62.20
2018-08-23T04:04:44.572Z,76.40
2018-08-23T04:05:44.556Z,65.90
2018-08-23T04:06:44.542Z,51.90
2018-08-23T04:07:44.525Z,53.90
2018-08-23T04:08:44.511Z,47.60
2018-08-23T04:09:44.496Z,49.60
2018-08-23T04:10:44.480Z,51.70
2018-08-23T04:11:44.464Z,52.90
2018-08-23T04:12:44.447Z,56.00
2018-08-23T04:13:44.436Z,55.90
2018-08-23T04:14:44.425Z,55.50
2018-08-23T04:15:44.408Z,53.50
2018-08-23T04:16:44.397Z,52.20
2018-08-23T04:17:44.375Z,49.80
2018-08-23T04:18:44.361Z,46.00
2018-08-23T04:19:44.343Z,44.90
2018-08-23T04:20:44.329Z,47.40
2018-08-23T04:21:44.312Z,44.90
2018-08-23T04:22:44.305Z,43.40
2018-08-23T04:23:44.281Z,43.60
2018-08-23T04:24:44.268Z,43.40
2018-08-23T04:25:44.252Z,43.20
2018-08-23T04:26:44.245Z,42.30
2018-08-23T04:27:44.222Z,42.70
2018-08-23T04:28:44.205Z,43.80
2018-08-23T04:29:44.191Z,46.40
2018-08-23T04:30:44.176Z,45.40
2018-08-23T04:31:44.160Z,46.80
2018-08-23T04:32:44.156Z,46.90
2018-08-23T04:33:44.141Z,47.80
2018-08-23T04:34:44.114Z,48.90
2018-08-23T04:35:44.099Z,48.00
2018-08-23T04:36:44.084Z,49.00
2018-08-23T04:37:44.069Z,46.70
2018-08-23T04:38:44.056Z,46.10
2018-08-23T04:39:44.037Z,46.50
2018-08-23T04:40:44.024Z,49.80
2018-08-23T04:41:44.007Z,49.30
2018-08-23T04:42:43.994Z,49.00
2018-08-23T04:43:43.977Z,49.60
2018-08-23T04:44:43.962Z,50.70
2018-08-23T04:45:43.949Z,48.20
2018-08-23T04:46:43.936Z,50.90
2018-08-23T04:47:43.916Z,49.10
2018-08-23T04:48:43.910Z,52.40
2018-08-23T04:49:43.884Z,50.20
2018-08-23T04:50:43.872Z,52.10
2018-08-23T04:51:43.869Z,54.30
2018-08-23T04:52:43.844Z,52.00
2018-08-23T04:53:43.828Z,51.90
2018-08-23T04:54:43.808Z,53.50
2018-08-23T04:55:43.797Z,52.60
2018-08-23T04:56:43.787Z,52.20
2018-08-23T04:57:43.765Z,51.50
2018-08-23T04:58:43.747Z,57.20
2018-08-23T04:59:43.732Z,57.90
2018-08-23T05:00:43.718Z,56.60
2018-08-23T05:01:43.702Z,57.40
2018-08-23T05:02:43.687Z,54.40
2018-08-23T05:03:43.675Z,50.50
2018-08-23T05:04:43.657Z,50.90
2018-08-23T05:05:43.641Z,52.10
2018-08-23T05:06:43.625Z,50.70
2018-08-23T05:07:43.610Z,50.30
2018-08-23T05:08:43.606Z,50.70
2018-08-23T05:09:43.583Z,51.70
2018-08-23T05:10:43.565Z,52.20
2018-08-23T05:11:43.550Z,51.50
2018-08-23T05:12:43.534Z,52.00
2018-08-23T05:13:43.518Z,53.00
2018-08-23T05:14:43.504Z,51.60
2018-08-23T05:15:43.486Z,56.20
2018-08-23T05:16:43.472Z,53.30
2018-08-23T05:17:43.457Z,55.10
2018-08-23T05:18:43.442Z,50.50
2018-08-23T05:19:43.426Z,48.30
2018-08-23T05:20:43.409Z,51.10
2018-08-23T05:21:43.396Z,47.30
2018-08-23T05:22:43.380Z,48.90
2018-08-23T05:23:43.367Z,49.60
2018-08-23T05:24:43.349Z,50.50
2018-08-23T05:25:43.337Z,54.20
2018-08-23T05:26:43.324Z,59.10
2018-08-23T05:27:43.310Z,56.30
2018-08-23T05:28:43.287Z,50.80
2018-08-23T05:29:43.290Z,48.90
2018-08-23T05:30:43.259Z,52.50
2018-08-23T05:31:43.240Z,57.10
2018-08-23T05:32:43.226Z,56.70
2018-08-23T05:33:43.218Z,57.30
2018-08-23T05:34:43.196Z,60.50
2018-08-23T05:35:43.184Z,61.00
2018-08-23T05:36:43.163Z,59.60
2018-08-23T05:37:43.156Z,61.90
2018-08-23T05:38:43.133Z,63.70
2018-08-23T05:39:43.118Z,61.10
2018-08-23T05:40:43.102Z,63.60
2018-08-23T05:41:43.088Z,64.10
2018-08-23T05:42:43.073Z,64.40
2018-08-23T05:43:43.055Z,65.70
2018-08-23T05:44:43.043Z,64.30
2018-08-23T05:45:43.025Z,63.30
2018-08-23T05:46:43.012Z,65.60
2018-08-23T05:47:43.046Z,63.00
2018-08-23T05:48:42.980Z,61.90
2018-08-23T05:49:42.967Z,61.20
2018-08-23T05:50:42.949Z,63.00
2018-08-23T05:51:42.936Z,64.90
2018-08-23T05:52:42.920Z,63.70
2018-08-23T05:53:42.964Z,65.20
2018-08-23T05:54:42.889Z,65.00
2018-08-23T05:55:42.874Z,63.70
2018-08-23T05:56:42.856Z,62.70
2018-08-23T05:57:42.843Z,63.20
2018-08-23T05:58:42.829Z,59.40
2018-08-23T05:59:42.811Z,61.40
2018-08-23T06:00:42.801Z,61.70
2018-08-23T06:01:42.782Z,57.10
2018-08-23T06:02:42.784Z,58.90
2018-08-23T06:03:42.750Z,61.30
2018-08-23T06:04:42.734Z,59.70
2018-08-23T06:05:42.723Z,62.60
2018-08-23T06:06:42.706Z,63.50
2018-08-23T06:07:42.693Z,67.70
2018-08-23T06:08:42.674Z,68.20
2018-08-23T06:09:42.660Z,68.40
2018-08-23T06:10:42.647Z,68.50
2018-08-23T06:11:42.629Z,66.00
2018-08-23T06:12:42.612Z,67.90
2018-08-23T06:13:42.599Z,68.10
2018-08-23T06:14:42.588Z,69.80
2018-08-23T06:15:42.568Z,66.80
2018-08-23T06:16:42.553Z,67.60
2018-08-23T06:17:42.541Z,67.20
2018-08-23T06:18:42.524Z,69.80
2018-08-23T06:19:42.510Z,71.20
2018-08-23T06:20:42.490Z,70.80
2018-08-23T06:21:42.485Z,75.30
2018-08-23T06:22:42.461Z,71.50
2018-08-23T06:23:42.447Z,71.30
2018-08-23T06:24:42.429Z,70.30
2018-08-23T06:25:42.416Z,75.50
2018-08-23T06:26:42.401Z,74.60
2018-08-23T06:27:42.393Z,73.00
2018-08-23T06:28:42.370Z,73.30
2018-08-23T06:29:42.360Z,75.30
2018-08-23T06:30:42.342Z,75.30
2018-08-23T06:31:42.324Z,75.20
2018-08-23T06:32:42.335Z,72.20
2018-08-23T06:33:42.359Z,76.00
2018-08-23T06:34:42.283Z,76.00
2018-08-23T06:35:42.402Z,75.10
2018-08-23T06:36:42.248Z,75.90
2018-08-23T06:37:42.233Z,75.10
2018-08-23T06:38:42.293Z,77.70
2018-08-23T06:39:42.231Z,75.90
2018-08-23T06:40:42.194Z,75.60
2018-08-23T06:41:42.171Z,74.90
2018-08-23T06:42:42.156Z,73.80
2018-08-23T06:43:42.140Z,77.50
2018-08-23T06:44:42.129Z,76.80
2018-08-23T06:45:42.117Z,75.20
2018-08-23T06:46:42.098Z,74.60
2018-08-23T06:47:42.079Z,76.50
2018-08-23T06:48:42.087Z,73.20
2018-08-23T06:49:42.049Z,72.70
2018-08-23T06:50:42.036Z,76.60
2018-08-23T06:51:42.015Z,77.70
2018-08-23T06:52:42.007Z,75.10
2018-08-23T06:53:41.989Z,75.40
2018-08-23T06:54:41.973Z,76.20
2018-08-23T06:55:41.958Z,77.00
2018-08-23T06:56:41.946Z,79.40
2018-08-23T06:57:41.927Z,75.70
2018-08-23T06:58:41.961Z,76.80
2018-08-23T06:59:41.898Z,76.40
2018-08-23T07:00:41.877Z,77.60
2018-08-23T07:01:41.868Z,77.50
2018-08-23T07:02:41.848Z,75.90
2018-08-23T07:03:41.840Z,76.40
2018-08-23T07:04:41.818Z,75.20
2018-08-23T07:05:41.806Z,75.60
2018-08-23T07:06:41.838Z,77.30
2018-08-23T07:07:41.772Z,73.60
2018-08-23T07:08:41.755Z,75.70
2018-08-23T07:09:41.738Z,74.90
2018-08-23T07:10:41.743Z,74.00
2018-08-23T07:11:41.773Z,76.00
2018-08-23T07:12:41.694Z,73.00
2018-08-23T07:13:41.680Z,75.60
2018-08-23T07:14:41.668Z,74.30
2018-08-23T07:15:41.649Z,75.70
2018-08-23T07:16:41.636Z,72.50
2018-08-23T07:17:41.653Z,71.80
2018-08-23T07:18:41.604Z,71.80
2018-08-23T07:19:41.589Z,71.10
2018-08-23T07:20:41.572Z,71.30
2018-08-23T07:21:41.559Z,71.80
2018-08-23T07:22:41.543Z,69.40
2018-08-23T07:23:41.535Z,69.30
2018-08-23T07:24:41.515Z,69.00
2018-08-23T07:25:41.505Z,69.50
2018-08-23T07:26:41.484Z,70.70
2018-08-23T07:27:41.470Z,69.40
2018-08-23T07:28:41.456Z,68.70
2018-08-23T07:29:41.444Z,68.90
2018-08-23T07:30:41.424Z,69.10
2018-08-23T07:31:41.410Z,70.00
2018-08-23T07:32:41.396Z,68.70
2018-08-23T07:33:41.382Z,69.50
2018-08-23T07:34:41.367Z,66.00
2018-08-23T07:35:41.350Z,64.70
2018-08-23T07:36:41.335Z,68.50
2018-08-23T07:37:41.324Z,67.30
2018-08-23T07:38:41.307Z,66.70
2018-08-23T07:39:41.294Z,65.70
2018-08-23T07:40:41.285Z,65.60
2018-08-23T07:41:41.269Z,62.00
2018-08-23T07:42:41.248Z,66.00
2018-08-23T07:43:41.236Z,64.10
2018-08-23T07:44:41.219Z,59.70
2018-08-23T07:45:41.206Z,58.30
2018-08-23T07:46:41.195Z,58.20
2018-08-23T07:47:41.176Z,53.30
2018-08-23T07:48:41.258Z,55.50
2018-08-23T07:49:41.150Z,55.20
2018-08-23T07:50:41.135Z,53.80
2018-08-23T07:51:41.121Z,54.00
2018-08-23T07:52:41.124Z,53.90
2018-08-23T07:53:41.093Z,53.80
2018-08-23T07:54:41.077Z,54.20
2018-08-23T07:55:41.064Z,53.80
2018-08-23T07:56:41.050Z,52.00
2018-08-23T07:57:41.040Z,50.30
2018-08-23T07:58:41.021Z,51.30
2018-08-23T07:59:41.010Z,49.30
2018-08-23T08:00:40.990Z,49.30
2018-08-23T08:01:40.981Z,48.20
2018-08-23T08:02:40.967Z,41.80
2018-08-23T08:03:40.951Z,42.50
2018-08-23T08:04:41.051Z,42.50
2018-08-23T08:05:40.921Z,42.00
2018-08-23T08:06:40.907Z,41.90
2018-08-23T08:07:40.896Z,44.10
2018-08-23T08:08:40.880Z,45.10
2018-08-23T08:09:40.865Z,44.50
2018-08-23T08:10:40.856Z,43.70
2018-08-23T08:11:40.839Z,44.70
2018-08-23T08:12:40.836Z,43.60
2018-08-23T08:13:40.809Z,42.20
2018-08-23T08:14:40.813Z,39.50
2018-08-23T08:15:40.782Z,41.70
2018-08-23T08:16:40.767Z,39.00
2018-08-23T08:17:40.755Z,38.70
2018-08-23T08:18:40.752Z,37.30
2018-08-23T08:19:40.727Z,36.40
2018-08-23T08:20:40.713Z,35.80
2018-08-23T08:21:40.762Z,36.20
2018-08-23T08:22:40.685Z,34.90
2018-08-23T08:23:40.677Z,36.00
2018-08-23T08:24:40.697Z,35.50
2018-08-23T08:25:40.647Z,37.10
2018-08-23T08:26:40.641Z,36.10
2018-08-23T08:27:40.629Z,34.80
2018-08-23T08:28:40.604Z,33.60
2018-08-23T08:29:40.590Z,37.40
2018-08-23T08:30:40.582Z,35.30
2018-08-23T08:31:40.564Z,34.30
2018-08-23T08:32:40.558Z,33.10
2018-08-23T08:33:40.539Z,33.90
2018-08-23T08:34:40.523Z,33.00
2018-08-23T08:35:40.508Z,32.40
2018-08-23T08:36:40.495Z,31.20
2018-08-23T08:37:40.480Z,31.20
2018-08-23T08:38:40.470Z,33.30
2018-08-23T08:39:40.465Z,33.80
2018-08-23T08:40:40.442Z,31.40
2018-08-23T08:41:40.429Z,27.60
2018-08-23T08:42:40.417Z,29.60
2018-08-23T08:43:40.411Z,29.80
2018-08-23T08:44:40.387Z,26.60
2018-08-23T08:45:40.375Z,27.60
2018-08-23T08:46:40.372Z,25.10
2018-08-23T08:47:40.348Z,25.50
2018-08-23T08:48:40.336Z,27.20
2018-08-23T08:49:40.324Z,28.20
2018-08-23T08:50:40.308Z,25.20
2018-08-23T08:51:40.299Z,26.00
2018-08-23T08:52:40.284Z,26.30
2018-08-23T08:53:40.274Z,25.70
2018-08-23T08:54:40.256Z,26.50
2018-08-23T08:55:40.242Z,26.70
2018-08-23T08:56:40.239Z,26.20
2018-08-23T08:57:40.225Z,25.30
2018-08-23T08:58:40.211Z,24.60
2018-08-23T08:59:40.194Z,26.30
2018-08-23T09:00:40.178Z,24.40
2018-08-23T09:01:40.163Z,25.10
2018-08-23T09:02:40.153Z,26.50
2018-08-23T09:03:40.140Z,26.30
2018-08-23T09:04:40.125Z,25.50
2018-08-23T09:05:40.118Z,25.20
2018-08-23T09:06:40.104Z,22.90
2018-08-23T09:07:40.086Z,25.10
2018-08-23T09:08:40.080Z,26.30
2018-08-23T09:09:40.108Z,24.80
2018-08-23T09:10:40.048Z,24.20
2018-08-23T09:11:40.034Z,25.70
2018-08-23T09:12:40.020Z,24.70
2018-08-23T09:13:40.014Z,26.10
2018-08-23T09:14:39.994Z,25.80
2018-08-23T09:15:39.983Z,25.30
2018-08-23T09:16:39.982Z,24.10
2018-08-23T09:17:39.970Z,26.60
2018-08-23T09:18:39.991Z,25.30
2018-08-23T09:19:39.931Z,22.20
2018-08-23T09:20:40.025Z,20.20
2018-08-23T09:21:39.907Z,20.80
2018-08-23T09:22:39.894Z,20.60
2018-08-23T09:23:39.878Z,22.20
2018-08-23T09:24:39.866Z,20.80
2018-08-23T09:25:39.854Z,19.20
2018-08-23T09:26:39.842Z,18.60
2018-08-23T09:27:39.832Z,19.70
2018-08-23T09:28:39.817Z,19.50
2018-08-23T09:29:39.803Z,17.90
2018-08-23T09:30:39.796Z,17.40
2018-08-23T09:31:39.778Z,18.00
2018-08-23T09:32:39.773Z,18.30
2018-08-23T09:33:39.753Z,17.40
2018-08-23T09:34:39.746Z,16.60
2018-08-23T09:35:39.733Z,17.60
2018-08-23T09:36:39.717Z,18.50
2018-08-23T09:37:39.718Z,18.20
2018-08-23T09:38:39.692Z,18.70
2018-08-23T09:39:39.684Z,18.70
2018-08-23T09:40:39.664Z,17.90
2018-08-23T09:41:39.660Z,16.60
2018-08-23T09:42:39.640Z,17.30
2018-08-23T09:43:39.625Z,18.30
2018-08-23T09:44:39.624Z,17.60
2018-08-23T09:45:39.601Z,15.70
2018-08-23T09:46:39.595Z,16.30
2018-08-23T09:47:39.577Z,17.50
2018-08-23T09:48:39.567Z,16.70
2018-08-23T09:49:39.550Z,16.00
2018-08-23T09:50:39.548Z,16.60
2018-08-23T09:51:39.527Z,16.10
2018-08-23T09:52:39.515Z,16.00
2018-08-23T09:53:39.509Z,16.20
2018-08-23T09:54:39.493Z,18.40
2018-08-23T09:55:39.476Z,17.70
2018-08-23T09:56:39.636Z,16.60
2018-08-23T09:57:39.456Z,19.40
2018-08-23T09:58:39.440Z,16.80
2018-08-23T09:59:39.431Z,17.00
2018-08-23T10:00:39.417Z,16.60
2018-08-23T10:01:39.403Z,18.80
2018-08-23T10:02:39.392Z,18.10
2018-08-23T10:03:39.376Z,18.80
2018-08-23T10:04:39.449Z,17.70
2018-08-23T10:05:39.352Z,18.20
2018-08-23T10:06:39.344Z,17.20
2018-08-23T10:07:39.327Z,18.70
2018-08-23T10:08:39.319Z,20.10
2018-08-23T10:09:39.304Z,17.90
2018-08-23T10:10:39.294Z,18.10
2018-08-23T10:11:39.425Z,16.30
2018-08-23T10:12:39.265Z,19.60
2018-08-23T10:13:39.261Z,20.30
2018-08-23T10:14:39.245Z,18.20
2018-08-23T10:15:39.230Z,18.00
2018-08-23T10:16:39.227Z,18.60
2018-08-23T10:17:39.206Z,19.20
2018-08-23T10:18:39.195Z,18.00
2018-08-23T10:19:39.185Z,18.30
2018-08-23T10:20:39.171Z,19.50
2018-08-23T10:21:39.158Z,20.60
2018-08-23T10:22:39.146Z,19.50
2018-08-23T10:23:39.148Z,20.10
2018-08-23T10:24:39.125Z,21.90
2018-08-23T10:25:39.112Z,22.80
2018-08-23T10:26:39.142Z,20.80
2018-08-23T10:27:39.086Z,19.90
2018-08-23T10:28:39.077Z,21.80
2018-08-23T10:29:39.060Z,22.40
2018-08-23T10:30:39.054Z,23.50
2018-08-23T10:31:39.038Z,23.40
2018-08-23T10:32:39.027Z,23.90
2018-08-23T10:33:39.014Z,24.00
2018-08-23T10:34:39.506Z,23.60
2018-08-23T10:35:38.989Z,24.90
2018-08-23T10:36:38.975Z,27.00
2018-08-23T10:37:38.969Z,25.90
2018-08-23T10:38:38.955Z,26.80
2018-08-23T10:39:38.939Z,24.40
2018-08-23T10:40:38.927Z,23.60
2018-08-23T10:41:38.923Z,24.20
2018-08-23T10:42:38.901Z,22.20
2018-08-23T10:43:38.889Z,22.50
2018-08-23T10:44:38.890Z,22.20
2018-08-23T10:45:38.870Z,23.50
2018-08-23T10:46:38.853Z,27.10
2018-08-23T10:47:38.856Z,26.30
2018-08-23T10:48:38.828Z,24.90
2018-08-23T10:49:38.819Z,25.70
2018-08-23T10:50:38.835Z,25.90
2018-08-23T10:51:38.809Z,24.60
2018-08-23T10:52:38.786Z,24.70
2018-08-23T10:53:38.771Z,24.30
2018-08-23T10:54:38.761Z,24.00
2018-08-23T10:55:38.744Z,24.00
2018-08-23T10:56:38.736Z,22.60
2018-08-23T10:57:38.724Z,25.10
2018-08-23T10:58:38.715Z,22.50
2018-08-23T10:59:38.693Z,23.20
2018-08-23T11:00:38.694Z,23.30
2018-08-23T11:01:38.668Z,21.90
2018-08-23T11:02:38.657Z,22.00
2018-08-23T11:03:38.650Z,21.60
2018-08-23T11:04:38.638Z,22.70
2018-08-23T11:05:38.620Z,23.30
2018-08-23T11:06:38.609Z,22.30
2018-08-23T11:07:38.599Z,23.20
2018-08-23T11:08:38.586Z,22.10
2018-08-23T11:09:38.619Z,21.70
2018-08-23T11:10:38.565Z,22.20
2018-08-23T11:11:38.549Z,23.90
2018-08-23T11:12:38.537Z,24.00
2018-08-23T11:13:38.525Z,26.60
2018-08-23T11:14:38.513Z,26.00
2018-08-23T11:15:38.503Z,27.60
2018-08-23T11:16:38.534Z,27.90
2018-08-23T11:17:38.485Z,24.80
2018-08-23T11:18:38.475Z,25.70
2018-08-23T11:19:38.452Z,24.60
2018-08-23T11:20:38.449Z,23.90
2018-08-23T11:21:38.430Z,23.90
2018-08-23T11:22:38.427Z,24.20
2018-08-23T11:23:38.409Z,24.60
2018-08-23T11:24:38.404Z,24.30
2018-08-23T11:25:38.388Z,24.00
2018-08-23T11:26:38.371Z,26.00
2018-08-23T11:27:38.359Z,25.50
2018-08-23T11:28:38.342Z,24.80
2018-08-23T11:29:38.441Z,24.40
2018-08-23T11:30:38.318Z,24.30
2018-08-23T11:31:38.310Z,24.00
2018-08-23T11:32:38.296Z,24.20
2018-08-23T11:33:38.283Z,24.30
2018-08-23T11:34:38.276Z,26.00
2018-08-23T11:35:38.261Z,25.80
2018-08-23T11:36:38.251Z,24.90
2018-08-23T11:37:38.237Z,23.60
2018-08-23T11:38:38.224Z,23.40
2018-08-23T11:39:38.211Z,23.60
2018-08-23T11:40:38.202Z,22.30
2018-08-23T11:41:38.187Z,23.10
2018-08-23T11:42:38.232Z,22.60
2018-08-23T11:43:38.163Z,19.90
2018-08-23T11:44:38.151Z,20.90
2018-08-23T11:45:38.140Z,18.70
2018-08-23T11:46:38.142Z,20.30
2018-08-23T11:47:38.114Z,21.90
2018-08-23T11:48:38.105Z,18.80
2018-08-23T11:49:38.091Z,19.70
2018-08-23T11:50:38.082Z,20.70
2018-08-23T11:51:38.066Z,17.70
2018-08-23T11:52:38.055Z,18.60
2018-08-23T11:53:38.224Z,18.60
2018-08-23T11:54:38.041Z,19.40
2018-08-23T11:55:38.018Z,17.80
2018-08-23T11:56:38.005Z,18.10
2018-08-23T11:57:37.997Z,17.60
2018-08-23T11:58:37.996Z,17.80
2018-08-23T11:59:37.969Z,21.60
2018-08-23T12:00:37.965Z,20.30
2018-08-23T12:01:37.946Z,21.30
2018-08-23T12:02:37.936Z,21.10
2018-08-23T12:03:37.921Z,19.60
2018-08-23T12:04:37.912Z,20.00
2018-08-23T12:05:37.901Z,22.20
2018-08-23T12:06:37.965Z,22.30
2018-08-23T12:07:37.893Z,19.20
2018-08-23T12:08:37.860Z,18.40
2018-08-23T12:09:37.848Z,18.80
2018-08-23T12:10:37.836Z,19.30
2018-08-23T12:11:37.825Z,21.00
2018-08-23T12:12:37.820Z,20.70
2018-08-23T12:13:37.799Z,20.90
2018-08-23T12:14:37.790Z,18.40
2018-08-23T12:15:37.782Z,17.40
2018-08-23T12:16:37.764Z,16.80
2018-08-23T12:17:37.754Z,17.60
2018-08-23T12:18:37.745Z,19.10
2018-08-23T12:19:37.729Z,16.40
2018-08-23T12:20:37.720Z,15.00
2018-08-23T12:21:37.705Z,15.50
2018-08-23T12:22:37.694Z,16.10
2018-08-23T12:23:37.684Z,14.50
2018-08-23T12:24:37.692Z,15.20
2018-08-23T12:25:37.682Z,13.70
2018-08-23T12:26:37.667Z,15.30
2018-08-23T12:27:37.631Z,15.00
2018-08-23T12:28:37.620Z,13.20
2018-08-23T12:29:37.668Z,13.00
2018-08-23T12:30:37.598Z,12.50
2018-08-23T12:31:37.601Z,12.40
2018-08-23T12:32:37.580Z,13.70
2018-08-23T12:33:37.563Z,14.70
2018-08-23T12:34:37.553Z,13.30
2018-08-23T12:35:37.541Z,13.70
2018-08-23T12:36:37.529Z,14.50
2018-08-23T12:37:37.554Z,15.40
2018-08-23T12:38:37.508Z,17.70
2018-08-23T12:39:37.489Z,16.60
2018-08-23T12:40:37.484Z,17.30
2018-08-23T12:41:37.470Z,16.50
2018-08-23T12:42:37.512Z,16.30
2018-08-23T12:43:37.450Z,16.60
2018-08-23T12:44:37.503Z,15.90
2018-08-23T12:45:37.426Z,16.50
2018-08-23T12:46:37.418Z,16.70
2018-08-23T12:47:37.414Z,15.70
2018-08-23T12:48:37.407Z,16.50
2018-08-23T12:49:37.419Z,18.00
2018-08-23T12:50:37.373Z,15.20
2018-08-23T12:51:37.352Z,14.40
2018-08-23T12:52:37.342Z,15.00